Pagrindinis puslapis
METAR-TAF:

METAR-TAF

Oro uostai :

Santa Klara, Kuba

platuma: 22-29-32N, ilguma: 079-56-37W, Aukštis: 103 m

Dabartinis oras

Ataskaita buvo paskelbta 1 valandą ir 2 minutes, ne 04:50 UTC
Vėjas 1 kt nuo kintamojo kryptimis
Temperatūra 18°C
Drėgmė 100%
Slėgis 1020 hPa
Matomumas: 9000 m

METAR: MUSC 020450Z VRB01KT 9000 NSC 18/18 Q1020

Laikas: 00:52 (05:52 UTC)

Prognozė

Ataskaita buvo paskelbta 52 minutes, ne 05:00 UTC
Prognozė galioja nuo 02 metu 06 UTC su 03 metu 06 UTC
Vėjas 3 kt nuo kintamojo kryptimis
Matomumas: 9000 m
Išsisklaidę debesys ne aukštis 2000 ft
Tapsmas
nuo 02 metu 15 UTC su 02 metu 17 UTC
Vėjas 10 kt iš Šiaurės/Šiaurės Rytų
Tapsmas
nuo 03 metu 01 UTC su 03 metu 03 UTC
Vėjas 3 kt nuo kintamojo kryptimis

TAF: MUSC 020500Z 0206/0306 VRB03KT 9000 SCT020 BECMG 0215/0217 03010KT BECMG 0301/0303 VRB03KT

Orai ataskaitas ir orų prognozės (METAR, TAF).

turimą stotys yra geltonos ir raudonos taškus žemėlapyje.

Perkelti pele per norėdami pamatyti stoties vardą.

Tada spustelėkite, norėdami matyti oro stebėjimo ir prognozės.

Norėdami pakeisti žemėlapį: spustelėkite ant žalios mygtukų su juodo kryžiaus žemyn,; žalią mygtuką su brūkšneliu, jei norite nutolinti; arba žalių rodyklių gretimoms žemėlapius.


METAR-TAF: